Time;durP1;ratioP1;P1;durP2;ratioP2;P2;SDS_P1;SDS_P2;PMS_P1;PMS_P2;Temp;Humidity;BMP_temperature;BMP_pressure;BME280_temperature;BME280_humidity;BME280_pressure;Samples;Min_cycle;Max_cycle;Signal;HPM_P1;HPM_P2
2022/10/26 00:01:14;;;;;;;11.65;5.35;;;;;;;21.07;47.66;101397.34;5049463;28;20025;-74
2022/10/26 00:03:41;;;;;;;8.90;4.95;;;;;;;21.80;45.88;101397.56;5050298;28;20120;-73
2022/10/26 00:06:18;;;;;;;9.23;5.07;;;;;;;21.25;46.81;101400.09;5050380;28;20055;-74
2022/10/26 00:08:44;;;;;;;8.80;5.05;;;;;;;21.01;47.06;101392.31;5049326;28;20036;-73
2022/10/26 00:11:11;;;;;;;12.93;6.38;;;;;;;22.05;45.35;101396.34;5051572;28;20507;-73
2022/10/26 00:13:37;;;;;;;11.85;4.90;;;;;;;22.19;44.53;101393.00;5049590;28;20419;-73
2022/10/26 00:16:12;;;;;;;10.63;5.20;;;;;;;21.62;45.54;101382.47;5050262;28;20098;-73
2022/10/26 00:18:37;;;;;;;11.45;4.95;;;;;;;21.46;46.00;101371.66;5051414;28;20039;-73
2022/10/26 00:21:04;;;;;;;10.75;4.75;;;;;;;21.29;46.43;101380.44;5049495;28;20444;-73
2022/10/26 00:23:30;;;;;;;13.45;5.07;;;;;;;21.63;45.74;101370.91;5069351;28;20078;-73
2022/10/26 00:25:57;;;;;;;9.43;5.00;;;;;;;21.59;45.36;101371.97;5054380;28;20021;-73
2022/10/26 00:28:23;;;;;;;10.75;4.53;;;;;;;21.08;46.77;101367.19;5054549;28;20037;-73
2022/10/26 00:30:48;;;;;;;6.90;4.57;;;;;;;21.35;45.82;101370.38;5054092;28;20031;-73
2022/10/26 00:33:14;;;;;;;7.60;4.55;;;;;;;20.98;46.95;101365.91;5054107;28;20404;-73
2022/10/26 00:35:39;;;;;;;9.95;5.32;;;;;;;21.37;46.55;101367.63;5053212;28;20063;-73
2022/10/26 00:38:04;;;;;;;9.48;5.20;;;;;;;21.55;46.12;101371.25;5054147;28;20476;-74
2022/10/26 00:40:30;;;;;;;8.00;4.70;;;;;;;21.17;46.79;101374.75;5053959;28;20033;-73
2022/10/26 00:42:55;;;;;;;10.13;4.60;;;;;;;20.97;47.53;101358.84;5054546;28;20084;-73
2022/10/26 00:45:27;;;;;;;11.80;5.10;;;;;;;21.61;46.43;101360.34;5053760;28;20469;-73
2022/10/26 00:47:55;;;;;;;11.52;4.78;;;;;;;21.71;45.91;101355.44;5055165;28;20040;-73
2022/10/26 00:50:25;;;;;;;7.55;4.30;;;;;;;21.65;45.62;101355.72;5052924;28;20117;-74
2022/10/26 00:52:52;;;;;;;11.55;4.88;;;;;;;21.81;45.68;101362.00;5053818;28;20025;-73
2022/10/26 00:55:22;;;;;;;13.02;4.78;;;;;;;20.67;47.45;101362.75;5055059;28;20028;-73
2022/10/26 00:57:50;;;;;;;8.20;4.72;;;;;;;21.44;46.28;101361.09;5052914;28;20194;-74
2022/10/26 01:00:16;;;;;;;8.77;4.63;;;;;;;21.71;46.08;101355.44;5053730;28;20021;-73
2022/10/26 01:02:43;;;;;;;9.80;4.75;;;;;;;21.30;46.99;101359.09;5054357;28;20043;-73
2022/10/26 01:05:10;;;;;;;11.65;4.90;;;;;;;21.98;45.08;101352.31;5053555;28;20036;-73
2022/10/26 01:07:35;;;;;;;12.57;4.80;;;;;;;22.12;44.85;101348.97;5053817;28;20065;-73
2022/10/26 01:10:01;;;;;;;7.32;4.68;;;;;;;21.81;44.95;101350.50;5054352;28;20077;-73
2022/10/26 01:12:26;;;;;;;7.97;4.88;;;;;;;22.14;44.61;101339.13;5069769;28;20037;-73
2022/10/26 01:14:52;;;;;;;19.73;5.60;;;;;;;21.21;46.27;101337.38;5053334;28;20051;-73
2022/10/26 01:17:41;;;;;;;12.27;5.55;;;;;;;21.46;46.44;101335.31;5053820;28;20025;-73
2022/10/26 01:20:25;;;;;;;10.75;5.50;;;;;;;21.67;46.08;101332.56;5054607;28;20116;-73
2022/10/26 01:23:17;;;;;;;11.05;4.70;;;;;;;21.61;45.58;101327.53;5053070;28;20032;-73
2022/10/26 01:26:20;;;;;;;9.50;5.20;;;;;;;20.87;47.01;101334.50;5052488;28;20031;-73
2022/10/26 01:29:08;;;;;;;10.13;5.40;;;;;;;21.00;47.13;101327.66;5054505;28;20036;-73
2022/10/26 01:31:41;;;;;;;8.00;5.07;;;;;;;21.46;46.21;101319.34;5052221;28;20116;-73
2022/10/26 01:34:25;;;;;;;10.18;5.35;;;;;;;21.56;45.84;101318.94;5052143;28;20037;-73
2022/10/26 01:36:57;;;;;;;9.35;5.28;;;;;;;21.27;46.85;101318.50;5052849;28;20025;-73
2022/10/26 01:39:28;;;;;;;8.15;5.30;;;;;;;21.78;45.74;101314.28;5052273;28;20037;-73
2022/10/26 01:42:00;;;;;;;9.77;5.00;;;;;;;21.01;46.95;101313.47;5052857;28;20028;-73
2022/10/26 01:44:33;;;;;;;13.63;6.07;;;;;;;20.82;47.89;101312.59;5052853;28;20025;-73
2022/10/26 01:47:01;;;;;;;15.07;5.55;;;;;;;20.58;48.32;101314.50;5052038;28;20035;-73
2022/10/26 01:49:30;;;;;;;10.50;5.43;;;;;;;20.83;47.63;101314.31;5052293;28;20064;-73
2022/10/26 01:51:56;;;;;;;11.77;5.53;;;;;;;21.14;47.12;101318.22;5053090;28;20033;-73
2022/10/26 01:54:21;;;;;;;10.13;5.78;;;;;;;21.13;47.31;101316.47;5052835;28;20029;-73
2022/10/26 01:56:54;;;;;;;9.43;5.82;;;;;;;21.33;46.92;101307.56;5054167;28;20551;-73
2022/10/26 01:59:26;;;;;;;13.38;6.05;;;;;;;21.95;45.52;101288.63;5051728;28;20495;-73
2022/10/26 02:02:03;;;;;;;13.50;6.45;;;;;;;21.95;45.46;101293.94;5052425;28;20039;-73
2022/10/26 02:04:47;;;;;;;11.52;6.22;;;;;;;20.63;48.74;101294.78;5052425;28;20035;-73
2022/10/26 02:07:28;;;;;;;11.85;5.47;;;;;;;21.41;46.51;101289.44;5051500;28;20084;-73
2022/10/26 02:10:12;;;;;;;11.75;5.95;;;;;;;21.75;46.14;101284.28;5052290;28;20032;-73
2022/10/26 02:13:00;;;;;;;12.70;6.63;;;;;;;21.72;45.57;101288.00;5053246;28;20112;-73
2022/10/26 02:15:26;;;;;;;17.13;6.65;;;;;;;21.38;47.15;101289.59;5004049;28;20086;-73
2022/10/26 02:18:30;;;;;;;12.77;5.50;;;;;;;21.80;45.41;101280.50;5052378;28;20041;-74
2022/10/26 02:21:02;;;;;;;9.98;5.95;;;;;;;21.38;46.58;101286.94;5051622;28;20029;-73
2022/10/26 02:23:30;;;;;;;10.43;5.75;;;;;;;21.67;45.83;101295.34;5051849;28;20028;-73
2022/10/26 02:25:59;;;;;;;11.25;6.45;;;;;;;21.36;46.81;101291.47;5053430;28;20025;-73
2022/10/26 02:28:29;;;;;;;8.70;6.07;;;;;;;21.72;45.68;101297.75;5051214;28;20040;-74
2022/10/26 02:30:58;;;;;;;12.90;6.22;;;;;;;21.74;45.86;101294.09;5051895;28;20107;-73
2022/10/26 02:33:28;;;;;;;15.38;6.60;;;;;;;21.37;46.31;101287.88;5051534;28;20043;-73
2022/10/26 02:35:54;;;;;;;11.88;6.68;;;;;;;21.60;46.00;101288.59;5051221;28;20028;-73
2022/10/26 02:38:22;;;;;;;14.20;6.75;;;;;;;21.19;47.00;101282.50;5051733;28;20472;-73
2022/10/26 02:40:50;;;;;;;13.45;6.65;;;;;;;20.69;48.12;101280.41;5051724;28;20024;-73
2022/10/26 02:43:21;;;;;;;12.50;6.25;;;;;;;20.06;50.27;101278.72;5050938;28;20108;-73
2022/10/26 02:45:52;;;;;;;8.40;6.32;;;;;;;21.05;47.52;101277.00;5052632;28;20036;-73
2022/10/26 02:48:18;;;;;;;10.45;5.82;;;;;;;21.52;46.35;101271.19;5052205;28;20028;-73
2022/10/26 02:51:03;;;;;;;11.43;6.30;;;;;;;21.70;46.27;101276.56;5052624;28;20053;-73
2022/10/26 02:53:36;;;;;;;10.80;6.65;;;;;;;21.40;46.62;101279.75;5051420;28;20061;-73
2022/10/26 02:56:09;;;;;;;12.45;6.47;;;;;;;21.63;45.95;101283.13;5050867;28;20090;-73
2022/10/26 02:58:41;;;;;;;12.48;6.57;;;;;;;21.87;45.44;101270.38;5051484;28;20542;-73
2022/10/26 03:01:07;;;;;;;9.45;5.65;;;;;;;21.79;46.07;101272.56;5051496;28;20025;-73
2022/10/26 03:03:33;;;;;;;12.15;6.75;;;;;;;21.94;45.57;101273.59;5050775;28;20032;-73
2022/10/26 03:05:58;;;;;;;13.20;6.55;;;;;;;21.57;46.69;101273.66;5051259;28;20024;-73
2022/10/26 03:08:23;;;;;;;9.48;6.50;;;;;;;21.43;47.03;101279.63;5051178;28;20025;-73
2022/10/26 03:10:49;;;;;;;15.68;6.38;;;;;;;21.71;46.32;101266.75;5050007;28;20385;-73
2022/10/26 03:13:14;;;;;;;12.52;6.53;;;;;;;20.63;48.45;101272.69;5051068;28;20020;-73
2022/10/26 03:15:40;;;;;;;12.07;6.53;;;;;;;21.05;47.92;101266.34;5051042;28;20056;-73
2022/10/26 03:18:05;;;;;;;13.32;6.30;;;;;;;22.12;45.40;101261.13;5050465;28;20028;-73
2022/10/26 03:20:31;;;;;;;13.63;5.82;;;;;;;21.49;46.55;101259.84;5051004;28;20082;-73
2022/10/26 03:22:57;;;;;;;9.63;6.13;;;;;;;22.25;44.81;101248.91;5067483;28;20032;-74
2022/10/26 03:25:25;;;;;;;9.20;6.03;;;;;;;22.06;45.02;101251.66;5050034;28;20021;-73
2022/10/26 03:28:02;;;;;;;14.75;6.95;;;;;;;21.78;45.36;101255.75;5052235;28;20024;-74
2022/10/26 03:30:29;;;;;;;11.27;6.07;;;;;;;22.03;45.02;101254.50;5050094;28;20028;-73
2022/10/26 03:32:54;;;;;;;9.00;6.15;;;;;;;22.03;44.87;101257.16;5050828;28;20021;-74
2022/10/26 03:35:20;;;;;;;9.10;5.53;;;;;;;21.54;45.44;101259.63;5050454;28;20485;-73
2022/10/26 03:37:45;;;;;;;9.75;5.80;;;;;;;21.89;45.52;101257.03;5051390;28;20029;-73
2022/10/26 03:40:11;;;;;;;9.90;6.00;;;;;;;21.33;47.82;101259.72;5050625;28;20099;-73
2022/10/26 03:42:36;;;;;;;12.30;6.68;;;;;;;21.63;46.91;101252.06;5050706;28;20032;-73
2022/10/26 03:45:03;;;;;;;14.00;6.72;;;;;;;21.72;46.13;101249.88;5049934;28;20036;-73
2022/10/26 03:47:28;;;;;;;11.23;5.88;;;;;;;21.80;45.95;101248.56;5050614;28;20024;-73
2022/10/26 03:53:15;;;;;;;15.63;5.72;;;;;;;21.58;46.48;101253.22;5050539;28;20102;-73
2022/10/26 03:55:43;;;;;;;14.15;6.10;;;;;;;21.56;46.96;101241.81;5050918;28;20028;-73
2022/10/26 03:58:08;;;;;;;12.80;5.90;;;;;;;21.19;47.60;101250.59;5050416;28;20473;-73
2022/10/26 04:00:34;;;;;;;8.82;5.60;;;;;;;21.63;46.47;101248.53;5049777;28;20017;-73
2022/10/26 04:02:59;;;;;;;9.30;5.60;;;;;;;21.79;46.31;101236.19;5050649;28;20029;-73
2022/10/26 04:05:26;;;;;;;9.65;5.70;;;;;;;21.37;47.35;101250.66;5051037;28;20029;-73
2022/10/26 04:07:57;;;;;;;10.82;5.70;;;;;;;22.33;45.43;101246.69;5050054;28;20143;-74
2022/10/26 04:10:24;;;;;;;12.13;5.38;;;;;;;21.94;45.82;101249.63;5050348;28;20025;-73
2022/10/26 04:12:50;;;;;;;11.35;5.40;;;;;;;21.30;47.96;101249.25;5051203;28;20089;-73
2022/10/26 04:15:16;;;;;;;11.77;5.60;;;;;;;21.81;46.34;101244.94;5051468;28;20025;-74
2022/10/26 04:17:41;;;;;;;11.30;4.82;;;;;;;21.79;46.19;101241.50;5050292;28;20040;-73
2022/10/26 04:20:08;;;;;;;7.32;5.18;;;;;;;21.91;46.35;101240.00;5049744;28;20029;-74
2022/10/26 04:22:34;;;;;;;9.18;5.05;;;;;;;22.15;45.24;101227.25;5050024;28;20057;-73
2022/10/26 04:24:59;;;;;;;14.43;5.60;;;;;;;22.09;45.16;101232.91;5049857;28;20113;-73
2022/10/26 04:27:24;;;;;;;7.90;5.57;;;;;;;22.57;44.27;101242.84;5066295;28;20412;-73
2022/10/26 04:29:50;;;;;;;11.77;5.90;;;;;;;22.16;45.43;101239.63;5050050;28;20036;-73
2022/10/26 04:32:15;;;;;;;10.50;4.93;;;;;;;22.05;45.55;101236.66;5051297;28;20025;-73
2022/10/26 04:34:40;;;;;;;9.13;4.97;;;;;;;22.44;45.05;101240.00;5066022;28;20033;-73
2022/10/26 04:37:06;;;;;;;11.73;5.40;;;;;;;21.50;46.43;101246.47;5050137;28;20025;-73
2022/10/26 04:39:31;;;;;;;9.05;4.72;;;;;;;21.56;46.85;101249.78;5049817;28;20124;-74
2022/10/26 04:41:56;;;;;;;9.10;5.28;;;;;;;22.07;46.26;101242.75;5049331;28;20032;-73
2022/10/26 04:44:22;;;;;;;7.40;5.28;;;;;;;22.76;44.00;101238.22;5049969;28;20043;-73
2022/10/26 04:46:47;;;;;;;7.57;4.60;;;;;;;22.06;45.95;101238.34;5049943;28;20083;-73
2022/10/26 04:49:13;;;;;;;12.82;5.10;;;;;;;22.32;44.94;101244.13;5065822;28;20079;-73
2022/10/26 04:51:39;;;;;;;9.80;4.90;;;;;;;22.85;44.08;101245.72;5049916;28;20079;-74
2022/10/26 04:54:04;;;;;;;11.60;5.55;;;;;;;22.66;44.88;101242.34;5049664;28;20131;-73
2022/10/26 04:56:29;;;;;;;13.07;4.80;;;;;;;21.50;46.92;101246.47;5050600;28;20090;-73
2022/10/26 04:58:55;;;;;;;13.18;5.18;;;;;;;22.30;45.97;101235.38;5066632;28;20362;-74
2022/10/26 05:01:21;;;;;;;9.25;4.75;;;;;;;21.90;46.35;101242.75;5049672;28;20124;-73
2022/10/26 05:03:50;;;;;;;14.75;5.75;;;;;;;21.63;47.18;101235.25;5050331;28;20029;-73
2022/10/26 05:06:15;;;;;;;13.50;5.30;;;;;;;22.15;45.83;101242.34;5049763;28;20063;-73
2022/10/26 05:08:40;;;;;;;12.40;5.07;;;;;;;21.91;46.39;101248.00;5049869;28;20052;-73
2022/10/26 05:11:06;;;;;;;15.00;4.85;;;;;;;22.14;46.12;101241.47;5068709;28;20504;-73
2022/10/26 05:13:31;;;;;;;9.60;5.13;;;;;;;22.56;45.88;101251.78;5053340;28;20416;-73
2022/10/26 05:15:57;;;;;;;12.60;5.95;;;;;;;22.33;46.00;101245.84;5069250;28;20028;-73
2022/10/26 05:18:22;;;;;;;10.50;5.28;;;;;;;22.56;45.42;101242.00;5053171;28;20028;-73
2022/10/26 05:20:50;;;;;;;7.93;4.45;;;;;;;22.26;46.28;101239.13;5053437;28;20488;-74
2022/10/26 05:23:17;;;;;;;14.27;5.80;;;;;;;21.92;46.41;101240.88;5052731;28;20044;-73
2022/10/26 05:25:43;;;;;;;10.73;4.88;;;;;;;21.40;47.41;101241.66;5052722;28;20081;-73
2022/10/26 05:28:12;;;;;;;11.07;4.43;;;;;;;22.43;45.95;101236.44;5053242;28;20394;-73
2022/10/26 05:30:38;;;;;;;13.90;5.60;;;;;;;21.81;47.56;101236.97;5053483;28;20029;-73
2022/10/26 05:33:03;;;;;;;11.50;4.68;;;;;;;21.92;47.37;101235.56;5054589;28;20025;-73
2022/10/26 05:35:29;;;;;;;8.40;5.10;;;;;;;22.27;46.22;101235.50;5052971;28;20028;-73
2022/10/26 05:37:55;;;;;;;10.00;5.45;;;;;;;22.00;47.31;101242.19;5052377;28;20494;-73
2022/10/26 05:40:21;;;;;;;13.05;5.57;;;;;;;21.64;48.26;101243.16;5052679;28;20028;-73
2022/10/26 05:42:46;;;;;;;13.23;5.55;;;;;;;22.26;46.75;101242.66;5053002;28;20079;-74
2022/10/26 05:45:12;;;;;;;8.57;5.20;;;;;;;22.06;47.15;101238.34;5051870;28;20036;-74
2022/10/26 05:47:40;;;;;;;10.00;5.13;;;;;;;22.55;45.96;101239.41;5052875;28;20029;-73
2022/10/26 05:50:06;;;;;;;10.90;5.22;;;;;;;22.41;46.20;101238.34;5052501;28;20025;-74
2022/10/26 05:52:40;;;;;;;11.00;5.75;;;;;;;21.93;46.92;101240.81;5051792;28;20024;-73
2022/10/26 05:55:11;;;;;;;8.77;4.40;;;;;;;22.50;45.71;101237.88;5052767;28;20340;-74
2022/10/26 05:57:37;;;;;;;9.95;4.70;;;;;;;21.74;47.16;101240.88;5053862;28;20075;-73
2022/10/26 06:00:07;;;;;;;9.85;4.68;;;;;;;21.35;47.95;101239.25;5051753;28;20029;-74
2022/10/26 06:03:05;;;;;;;9.15;4.82;;;;;;;21.34;49.03;101229.53;5052232;28;20021;-73
2022/10/26 06:05:52;;;;;;;10.98;4.93;;;;;;;22.08;47.16;101219.66;5032479;28;20040;-73
2022/10/26 06:08:18;;;;;;;12.77;5.18;;;;;;;22.10;46.85;101218.63;5052477;28;20124;-73
2022/10/26 06:10:44;;;;;;;7.97;5.05;;;;;;;21.91;47.11;101218.72;5052458;28;20033;-74
2022/10/26 06:13:09;;;;;;;11.07;5.05;;;;;;;21.22;48.61;101227.47;5051739;28;20021;-73
2022/10/26 06:15:58;;;;;;;7.72;5.10;;;;;;;21.98;46.97;101235.22;5068691;28;20075;-74
2022/10/26 06:18:45;;;;;;;11.32;4.80;;;;;;;22.75;45.03;101239.19;5052411;28;20082;-74
2022/10/26 06:21:29;;;;;;;12.50;5.00;;;;;;;22.48;45.76;101254.88;5052476;28;20024;-74
2022/10/26 06:24:08;;;;;;;9.63;4.65;;;;;;;22.69;44.97;101258.16;5052255;28;20451;-74
2022/10/26 06:26:49;;;;;;;7.45;4.57;;;;;;;21.61;47.77;101261.03;5051469;28;20033;-74
2022/10/26 06:29:21;;;;;;;12.52;4.88;;;;;;;22.59;45.31;101243.63;5051795;28;20098;-74
2022/10/26 06:31:47;;;;;;;10.00;5.20;;;;;;;22.19;46.68;101244.78;5053181;28;20029;-74
2022/10/26 06:34:22;;;;;;;11.27;4.47;;;;;;;21.99;47.35;101242.28;5051242;28;20032;-74
2022/10/26 06:36:48;;;;;;;8.75;4.22;;;;;;;22.14;46.68;101241.47;5053149;28;20104;-74
2022/10/26 06:39:15;;;;;;;10.93;4.57;;;;;;;21.39;48.40;101254.13;5051819;28;20025;-74
2022/10/26 06:41:41;;;;;;;9.27;4.55;;;;;;;21.67;48.07;101245.63;5051117;28;20017;-74
2022/10/26 06:44:11;;;;;;;14.48;4.53;;;;;;;21.54;48.54;101246.34;5068453;28;20128;-74
2022/10/26 06:47:06;;;;;;;6.85;4.22;;;;;;;22.07;47.00;101256.06;5051650;28;20040;-74
2022/10/26 06:49:35;;;;;;;8.15;4.45;;;;;;;22.22;46.25;101250.88;5008196;28;20397;-74
2022/10/26 06:52:10;;;;;;;9.38;4.75;;;;;;;22.10;46.22;101255.03;5051291;28;20071;-74
2022/10/26 06:54:42;;;;;;;11.48;4.60;;;;;;;22.39;46.20;101266.00;5050972;28;20052;-73
2022/10/26 06:57:13;;;;;;;6.75;3.97;;;;;;;21.91;46.99;101265.78;5051204;28;20088;-74
2022/10/26 06:59:47;;;;;;;9.07;4.50;;;;;;;22.03;47.07;101275.78;5051262;28;20021;-74
2022/10/26 07:02:13;;;;;;;16.02;5.95;;;;;;;21.72;47.36;101280.00;5050753;28;20102;-74
2022/10/26 07:04:39;;;;;;;8.63;4.22;;;;;;;21.95;46.70;101267.34;5051458;28;20036;-74
2022/10/26 07:07:05;;;;;;;8.48;4.25;;;;;;;22.15;46.30;101263.66;5051331;28;20025;-74
2022/10/26 07:09:30;;;;;;;8.70;4.45;;;;;;;22.34;45.62;101260.94;5050602;28;20078;-74
2022/10/26 07:11:55;;;;;;;6.75;4.60;;;;;;;21.98;46.93;101267.16;5067659;28;20021;-73
2022/10/26 07:14:21;;;;;;;9.20;4.60;;;;;;;21.66;47.06;101262.53;5050947;28;20233;-73
2022/10/26 07:16:46;;;;;;;8.57;4.72;;;;;;;21.66;47.92;101246.56;5050244;28;20119;-74
2022/10/26 07:19:11;;;;;;;11.98;4.43;;;;;;;22.35;45.82;101259.97;5050729;28;20029;-74
2022/10/26 07:21:37;;;;;;;11.32;4.63;;;;;;;21.23;49.06;101288.53;5050950;28;20021;-73
2022/10/26 07:24:02;;;;;;;13.75;4.72;;;;;;;22.11;47.11;101284.25;5050236;28;20029;-73
2022/10/26 07:26:28;;;;;;;8.32;4.30;;;;;;;22.27;46.52;101299.41;5050769;28;20036;-73
2022/10/26 07:28:53;;;;;;;12.18;4.80;;;;;;;22.10;47.37;101303.81;5050582;28;20016;-74
2022/10/26 07:31:18;;;;;;;6.78;4.53;;;;;;;22.25;47.06;101295.97;5050022;28;20075;-73
2022/10/26 07:33:44;;;;;;;13.32;4.75;;;;;;;22.46;46.01;101294.03;5050101;28;20083;-73
2022/10/26 07:36:10;;;;;;;10.63;5.22;;;;;;;22.31;47.08;101285.88;5052110;28;20029;-73
2022/10/26 07:38:36;;;;;;;13.93;4.60;;;;;;;22.79;45.55;101299.38;5049972;28;20473;-73
2022/10/26 07:41:03;;;;;;;8.77;4.90;;;;;;;22.49;46.67;101300.06;5050728;28;20107;-74
2022/10/26 07:43:29;;;;;;;12.20;4.80;;;;;;;22.60;46.26;101307.47;5050669;28;20025;-74
2022/10/26 07:45:54;;;;;;;9.63;4.53;;;;;;;21.97;47.53;101318.69;5051086;28;20381;-74
2022/10/26 07:48:19;;;;;;;9.77;4.68;;;;;;;22.29;47.52;101324.16;5050481;28;20029;-74
2022/10/26 07:50:45;;;;;;;11.15;4.88;;;;;;;22.48;46.46;101330.28;5051266;28;20026;-73
2022/10/26 07:53:12;;;;;;;14.23;4.70;;;;;;;23.07;45.78;101324.50;5051296;28;20444;-73
2022/10/26 07:55:37;;;;;;;9.15;4.80;;;;;;;22.92;46.10;101322.69;5050092;28;20037;-73
2022/10/26 07:58:02;;;;;;;10.02;4.40;;;;;;;22.22;47.72;101328.09;5049739;28;20060;-74
2022/10/26 08:00:28;;;;;;;8.45;3.72;;;;;;;22.12;48.37;101339.22;5050343;28;20079;-74
2022/10/26 08:02:54;;;;;;;8.43;3.80;;;;;;;21.85;49.35;101347.63;5051757;28;20012;-74
2022/10/26 08:05:19;;;;;;;14.55;4.13;;;;;;;22.74;47.82;101341.38;5049622;28;20105;-74
2022/10/26 08:07:45;;;;;;;6.25;3.80;;;;;;;22.52;48.11;101339.84;5050287;28;20029;-73
2022/10/26 08:10:11;;;;;;;11.80;4.35;;;;;;;21.87;49.71;101350.19;5050175;28;20017;-73
2022/10/26 08:12:37;;;;;;;14.40;4.38;;;;;;;22.58;48.66;101341.31;5049550;28;20025;-73
2022/10/26 08:15:03;;;;;;;8.68;3.92;;;;;;;22.68;48.80;101331.03;5050010;28;20124;-73
2022/10/26 08:17:28;;;;;;;9.77;3.30;;;;;;;23.24;47.85;101341.41;5050361;28;20028;-73
2022/10/26 08:19:54;;;;;;;9.68;3.50;;;;;;;23.76;46.65;101335.78;5049670;28;20021;-73
2022/10/26 08:22:19;;;;;;;7.15;3.63;;;;;;;24.03;45.34;101337.84;5050419;28;20029;-73
2022/10/26 08:24:45;;;;;;;8.43;3.33;;;;;;;23.39;46.36;101332.53;5066763;28;20021;-73
2022/10/26 08:27:13;;;;;;;6.00;3.35;;;;;;;24.06;46.02;101334.97;5049460;28;20028;-73
2022/10/26 08:29:38;;;;;;;7.75;3.42;;;;;;;23.59;47.07;101330.53;5050112;28;20035;-73
2022/10/26 08:32:04;;;;;;;9.38;3.63;;;;;;;23.87;46.67;101328.00;5050094;28;20113;-73
2022/10/26 08:34:29;;;;;;;7.50;3.50;;;;;;;23.16;47.75;101326.69;5050819;28;20025;-73
2022/10/26 08:36:54;;;;;;;8.10;3.60;;;;;;;23.16;48.77;101332.03;5066805;28;20107;-73
2022/10/26 08:39:20;;;;;;;9.00;3.53;;;;;;;22.96;48.96;101325.09;5049914;28;20017;-73
2022/10/26 08:41:51;;;;;;;10.55;2.97;;;;;;;22.79;48.68;101334.00;5049184;28;20025;-74
2022/10/26 08:44:16;;;;;;;7.30;3.90;;;;;;;24.02;46.65;101336.09;5053109;28;20020;-73
2022/10/26 08:46:47;;;;;;;8.65;3.13;;;;;;;24.30;45.95;101337.13;5053853;28;20089;-73
2022/10/26 08:49:18;;;;;;;5.93;2.80;;;;;;;24.47;45.93;101347.66;5053140;28;20025;-73
2022/10/26 08:51:45;;;;;;;9.02;3.17;;;;;;;23.84;47.20;101359.38;5070193;28;20036;-73
2022/10/26 08:54:18;;;;;;;6.78;2.60;;;;;;;23.80;47.97;101353.34;5052876;28;20049;-73
2022/10/26 08:56:54;;;;;;;12.75;2.95;;;;;;;23.64;48.69;101357.84;5054991;28;20028;-74
2022/10/26 08:59:25;;;;;;;6.88;3.35;;;;;;;23.73;47.70;101373.31;5054876;28;20028;-73
2022/10/26 09:01:51;;;;;;;7.65;2.70;;;;;;;24.24;47.87;101373.09;5052982;28;20082;-73
2022/10/26 09:04:17;;;;;;;7.80;3.13;;;;;;;23.96;47.94;101373.81;5070331;28;20104;-73
2022/10/26 09:07:01;;;;;;;4.45;2.50;;;;;;;23.85;47.46;101382.41;5053637;28;20029;-73
2022/10/26 09:09:40;;;;;;;8.20;2.35;;;;;;;24.51;46.14;101369.69;5052907;28;20497;-73
2022/10/26 09:12:32;;;;;;;4.15;2.70;;;;;;;24.32;46.07;101369.97;5053483;28;20025;-73
2022/10/26 09:15:03;;;;;;;12.15;3.83;;;;;;;24.26;46.53;101383.66;5070136;28;20485;-73
2022/10/26 09:17:41;;;;;;;7.35;2.30;;;;;;;24.09;47.67;101385.53;5052980;28;20404;-73
2022/10/26 09:20:15;;;;;;;6.13;2.47;;;;;;;24.60;46.81;101387.00;5053213;28;20040;-73
2022/10/26 09:22:57;;;;;;;7.45;2.38;;;;;;;24.97;46.12;101388.28;5052643;28;20355;-73
2022/10/26 09:25:25;;;;;;;7.15;2.70;;;;;;;25.36;45.38;101385.91;5069909;28;20378;-73
2022/10/26 09:28:01;;;;;;;8.07;2.60;;;;;;;24.70;46.21;101390.84;5054121;28;20031;-73
2022/10/26 09:30:29;;;;;;;8.77;2.30;;;;;;;25.36;45.64;101392.13;5053782;28;20139;-73
2022/10/26 09:32:58;;;;;;;4.00;2.33;;;;;;;25.46;45.00;101388.84;5054244;28;20024;-73
2022/10/26 09:35:28;;;;;;;4.60;2.25;;;;;;;26.38;43.09;101392.66;5053123;28;20025;-73
2022/10/26 09:37:59;;;;;;;5.15;2.53;;;;;;;26.13;43.53;101401.47;5052248;28;20112;-76
2022/10/26 09:40:38;;;;;;;8.48;2.70;;;;;;;25.27;44.39;101394.50;5053040;28;20029;-73
2022/10/26 09:43:09;;;;;;;6.55;2.25;;;;;;;26.15;43.85;101397.75;5052880;28;20431;-73
2022/10/26 09:45:43;;;;;;;8.38;2.65;;;;;;;26.47;43.49;101409.91;5053068;28;20029;-73
2022/10/26 09:48:19;;;;;;;6.22;2.40;;;;;;;25.72;44.15;101411.28;5053957;28;20024;-73
2022/10/26 09:50:48;;;;;;;8.93;2.38;;;;;;;24.68;47.08;101414.16;5052121;28;20058;-72
2022/10/26 09:53:14;;;;;;;6.93;2.50;;;;;;;25.65;45.12;101420.63;5053882;28;20060;-73
2022/10/26 09:55:44;;;;;;;9.35;1.90;;;;;;;25.71;44.79;101430.97;5052002;28;20025;-73
2022/10/26 09:58:29;;;;;;;8.77;2.58;;;;;;;25.54;45.13;101432.91;5051702;28;20397;-72
2022/10/26 10:00:55;;;;;;;8.32;2.45;;;;;;;26.18;43.75;101440.38;5052405;28;20056;-73
2022/10/26 10:03:29;;;;;;;16.15;3.05;;;;;;;25.78;44.12;101437.63;5052406;28;20032;-73
2022/10/26 10:06:15;;;;;;;5.45;2.42;;;;;;;24.72;46.97;101453.94;5052995;28;20051;-73
2022/10/26 10:08:40;;;;;;;6.78;2.20;;;;;;;25.93;45.19;101451.00;5052333;28;20074;-72
2022/10/26 10:11:14;;;;;;;9.05;2.42;;;;;;;25.12;46.40;101456.00;5052248;28;20064;-73
2022/10/26 10:13:44;;;;;;;12.00;2.72;;;;;;;24.53;48.85;101459.50;5052941;28;20111;-72
2022/10/26 10:16:21;;;;;;;13.82;2.75;;;;;;;25.59;45.43;101459.38;5052263;28;20102;-73
2022/10/26 10:18:58;;;;;;;9.63;2.45;;;;;;;24.16;48.70;101477.66;5051413;28;20033;-73
2022/10/26 10:21:44;;;;;;;9.15;2.38;;;;;;;24.85;48.74;101490.63;5052168;28;20029;-73
2022/10/26 10:24:30;;;;;;;10.75;2.45;;;;;;;25.44;47.25;101482.59;5053309;28;20028;-73
2022/10/26 10:27:03;;;;;;;10.35;2.60;;;;;;;25.94;45.55;101490.19;5052526;28;20029;-73
2022/10/26 10:29:32;;;;;;;7.35;2.55;;;;;;;25.40;45.56;101491.78;5053203;28;20035;-73
2022/10/26 10:31:59;;;;;;;10.45;2.90;;;;;;;25.84;45.68;101495.28;5051960;28;20029;-73
2022/10/26 10:34:26;;;;;;;5.75;2.42;;;;;;;25.54;45.35;101502.50;5051187;28;20031;-73
2022/10/26 10:36:52;;;;;;;11.80;2.60;;;;;;;24.78;48.11;101503.50;5051939;28;20028;-73
2022/10/26 10:39:32;;;;;;;5.07;2.20;;;;;;;25.12;46.94;101517.53;5051842;28;20036;-73
2022/10/26 10:41:57;;;;;;;9.25;2.35;;;;;;;26.39;45.90;101504.22;5051832;28;20025;-73
2022/10/26 10:44:28;;;;;;;6.97;2.55;;;;;;;26.38;45.01;101500.69;5051556;28;20436;-73
2022/10/26 10:47:05;;;;;;;6.95;2.33;;;;;;;25.68;46.05;101516.81;5050996;28;20054;-73
2022/10/26 10:49:31;;;;;;;7.38;2.60;;;;;;;25.74;46.35;101511.06;5052836;28;20056;-73
2022/10/26 10:51:57;;;;;;;10.88;2.13;;;;;;;26.77;43.95;101508.88;5051570;28;20036;-73
2022/10/26 10:54:34;;;;;;;8.10;1.95;;;;;;;25.31;47.26;101517.25;5050635;28;20060;-73
2022/10/26 10:57:02;;;;;;;7.05;2.33;;;;;;;26.27;45.31;101513.06;5051508;28;20039;-73
2022/10/26 10:59:46;;;;;;;7.88;2.28;;;;;;;27.94;41.62;101507.84;5051220;28;20039;-73
2022/10/26 11:02:39;;;;;;;5.22;2.08;;;;;;;27.79;42.03;101499.06;5050598;28;20033;-73
2022/10/26 11:05:23;;;;;;;;;;;;;;;26.14;44.76;101513.88;5051863;28;20040;-73
2022/10/26 11:08:01;;;;;;;5.13;2.05;;;;;;;25.90;46.37;101521.66;5050814;28;19909;-72
2022/10/26 11:10:32;;;;;;;5.60;2.42;;;;;;;26.30;45.28;101520.94;5051166;28;20187;-73
2022/10/26 11:13:07;;;;;;;8.25;2.88;;;;;;;26.85;44.31;101527.97;5052235;28;20033;-73
2022/10/26 11:15:36;;;;;;;5.88;2.13;;;;;;;26.91;44.11;101530.25;5050488;28;20451;-72
2022/10/26 11:18:18;;;;;;;5.50;2.30;;;;;;;26.63;44.46;101531.22;5051110;28;20029;-73
2022/10/26 11:20:52;;;;;;;6.43;2.33;;;;;;;24.95;47.71;101544.41;5051065;28;20017;-73
2022/10/26 11:23:51;;;;;;;7.82;2.20;;;;;;;26.00;45.72;101538.84;5050355;28;20071;-73
2022/10/26 11:26:31;;;;;;;8.57;2.63;;;;;;;26.89;44.07;101547.41;5050618;28;20463;-73
2022/10/26 11:29:38;;;;;;;8.82;2.78;;;;;;;27.50;43.33;101547.66;5051542;28;20110;-73
2022/10/26 11:32:20;;;;;;;5.47;1.90;;;;;;;28.06;41.30;101551.81;5017248;28;20056;-73
2022/10/26 11:34:57;;;;;;;13.93;2.90;;;;;;;27.36;41.85;101555.84;5050927;28;20035;-73
2022/10/26 11:37:30;;;;;;;5.93;1.73;;;;;;;27.46;42.35;101562.28;5049721;28;20039;-73
2022/10/26 11:40:02;;;;;;;6.10;1.70;;;;;;;26.68;44.37;101571.09;5051972;28;20104;-73